Time;durP1;ratioP1;P1;durP2;ratioP2;P2;SDS_P1;SDS_P2;PMS_P1;PMS_P2;Temp;Humidity;BMP_temperature;BMP_pressure;BME280_temperature;BME280_humidity;BME280_pressure;Samples;Min_cycle;Max_cycle;Signal;HPM_P1;HPM_P2
2021/01/26 00:00:13;;;;;;;3.08;2.78;;;;;;;5.73;36.07;99770.31;4951249;28;96520;-66
2021/01/26 00:02:39;;;;;;;2.97;2.67;;;;;;;5.74;36.64;99778.91;4952410;28;96609;-67
2021/01/26 00:05:07;;;;;;;2.75;2.38;;;;;;;5.76;36.21;99782.31;4948054;28;98564;-66
2021/01/26 00:07:35;;;;;;;4.40;2.95;;;;;;;5.74;35.92;99781.50;4945514;28;98598;-67
2021/01/26 00:10:01;;;;;;;2.42;2.22;;;;;;;5.64;36.91;99785.31;4951724;28;96746;-66
2021/01/26 00:12:28;;;;;;;2.63;2.42;;;;;;;5.66;35.72;99786.13;4951451;28;96684;-67
2021/01/26 00:14:54;;;;;;;3.28;2.78;;;;;;;5.68;36.25;99795.50;4951328;28;98489;-67
2021/01/26 00:17:21;;;;;;;3.00;2.40;;;;;;;5.71;36.10;99792.81;4951180;28;97723;-66
2021/01/26 00:19:47;;;;;;;4.65;3.17;;;;;;;5.72;36.94;99793.66;4951617;28;96586;-66
2021/01/26 00:22:13;;;;;;;4.15;2.47;;;;;;;5.75;36.50;99793.53;4950994;28;96575;-66
2021/01/26 00:24:40;;;;;;;3.92;2.63;;;;;;;5.78;36.81;99799.44;4951903;28;98505;-66
2021/01/26 00:27:07;;;;;;;2.47;2.15;;;;;;;5.76;36.47;99806.41;4950881;28;98704;-66
2021/01/26 00:29:34;;;;;;;2.95;2.60;;;;;;;5.78;36.42;99804.59;4951758;28;96614;-66
2021/01/26 00:32:00;;;;;;;3.05;2.45;;;;;;;5.79;36.47;99806.28;4952105;28;96726;-66
2021/01/26 00:34:27;;;;;;;2.45;2.25;;;;;;;5.82;36.15;99809.69;4950885;28;98787;-66
2021/01/26 00:36:53;;;;;;;2.85;2.38;;;;;;;5.79;35.81;99815.78;4933940;28;98916;-66
2021/01/26 00:39:20;;;;;;;3.17;2.88;;;;;;;5.79;35.69;99810.63;4950996;28;96575;-67
2021/01/26 00:41:46;;;;;;;3.55;2.33;;;;;;;5.76;35.95;99816.75;4932478;28;97682;-66
2021/01/26 00:44:12;;;;;;;3.08;2.28;;;;;;;5.73;36.27;99816.03;4942845;28;98474;-66
2021/01/26 00:46:39;;;;;;;2.88;2.67;;;;;;;5.65;35.61;99820.66;4947697;28;99037;-66
2021/01/26 00:49:05;;;;;;;2.55;2.35;;;;;;;5.66;35.94;99824.91;4944728;28;97340;-67
2021/01/26 00:51:31;;;;;;;2.40;2.20;;;;;;;5.70;36.19;99821.28;4930194;28;97747;-67
2021/01/26 00:53:58;;;;;;;3.40;2.60;;;;;;;5.66;35.89;99824.91;4929591;28;98613;-67
2021/01/26 00:56:31;;;;;;;2.45;2.20;;;;;;;5.71;35.71;99831.59;4929921;28;100044;-67
2021/01/26 00:58:58;;;;;;;2.60;2.30;;;;;;;5.68;35.78;99834.28;4929784;28;96708;-67
2021/01/26 01:01:25;;;;;;;2.45;2.15;;;;;;;5.66;35.20;99841.28;4943623;28;97507;-66
2021/01/26 01:03:51;;;;;;;1.80;1.70;;;;;;;5.62;35.61;99847.44;4923273;28;100282;-66
2021/01/26 01:06:18;;;;;;;2.63;2.42;;;;;;;5.57;35.50;99859.69;4946001;28;98770;-67
2021/01/26 01:08:44;;;;;;;3.15;2.20;;;;;;;5.65;35.86;99857.69;4945361;28;98702;-66
2021/01/26 01:11:11;;;;;;;2.30;1.90;;;;;;;5.65;35.76;99870.63;4944452;28;97335;-66
2021/01/26 01:13:37;;;;;;;2.53;2.13;;;;;;;5.64;35.14;99878.41;4944412;28;98405;-67
2021/01/26 01:16:04;;;;;;;2.53;2.33;;;;;;;5.55;35.67;99883.94;4942306;28;98572;-66
2021/01/26 01:18:30;;;;;;;3.33;2.40;;;;;;;5.56;35.61;99889.03;4943888;28;96625;-67
2021/01/26 01:20:57;;;;;;;2.83;2.55;;;;;;;5.56;35.53;99895.97;4945435;28;98373;-66
2021/01/26 01:23:23;;;;;;;2.58;2.00;;;;;;;5.60;35.52;99897.53;4946951;28;98496;-66
2021/01/26 01:25:57;;;;;;;2.20;1.98;;;;;;;5.60;35.05;99903.56;4944675;28;98437;-66
2021/01/26 01:28:24;;;;;;;2.42;2.08;;;;;;;5.57;35.56;99901.06;4944426;28;96876;-67
2021/01/26 01:30:53;;;;;;;2.55;2.35;;;;;;;5.52;35.57;99914.16;4946831;28;97300;-66
2021/01/26 01:33:20;;;;;;;3.08;2.22;;;;;;;5.48;36.07;99915.16;4928279;28;98477;-67
2021/01/26 01:35:46;;;;;;;2.65;2.45;;;;;;;5.50;35.85;99917.69;4941870;28;98413;-66
2021/01/26 01:38:13;;;;;;;3.55;2.13;;;;;;;5.55;35.55;99920.97;4943912;28;96846;-66
2021/01/26 01:40:39;;;;;;;4.20;2.00;;;;;;;5.52;35.49;99916.72;4944677;28;97751;-65
2021/01/26 01:43:06;;;;;;;2.67;2.10;;;;;;;5.51;35.51;99925.41;4944566;28;98672;-66
2021/01/26 01:45:33;;;;;;;2.30;1.80;;;;;;;5.47;35.32;99935.88;4948372;28;99560;-67
2021/01/26 01:48:19;;;;;;;1.90;1.80;;;;;;;5.41;35.58;99942.09;4946683;28;96682;-67
2021/01/26 01:50:52;;;;;;;2.65;2.38;;;;;;;5.40;35.16;99947.34;4943637;28;97852;-66
2021/01/26 01:53:18;;;;;;;2.53;2.33;;;;;;;5.42;35.13;99942.94;4943375;28;98455;-66
2021/01/26 01:55:53;;;;;;;2.53;1.80;;;;;;;5.36;35.81;99946.59;4944870;28;97504;-66
2021/01/26 01:58:22;;;;;;;2.53;2.05;;;;;;;5.42;35.73;99950.72;4925541;28;96823;-66
2021/01/26 02:00:51;;;;;;;2.00;1.85;;;;;;;5.31;35.75;99953.66;4913367;28;96764;-67
2021/01/26 02:03:28;;;;;;;3.53;2.03;;;;;;;5.33;35.76;99958.78;4924373;28;98603;-67
2021/01/26 02:05:56;;;;;;;2.88;2.35;;;;;;;5.32;35.35;99955.34;4938247;28;99700;-67
2021/01/26 02:08:39;;;;;;;1.63;1.52;;;;;;;5.33;35.11;99963.97;4937832;28;97456;-67
2021/01/26 02:11:06;;;;;;;2.30;1.80;;;;;;;5.36;35.00;99962.09;4927817;28;98487;-67
2021/01/26 02:13:33;;;;;;;2.08;1.88;;;;;;;5.33;34.96;99969.97;4929985;28;98618;-68
2021/01/26 02:16:01;;;;;;;1.70;1.60;;;;;;;5.32;35.07;99970.84;4943574;28;98554;-66
2021/01/26 02:18:40;;;;;;;1.75;1.65;;;;;;;5.30;35.29;99975.22;4924792;28;97161;-67
2021/01/26 02:21:30;;;;;;;1.73;1.60;;;;;;;5.36;35.18;99981.94;4929475;28;97505;-67
2021/01/26 02:24:08;;;;;;;1.70;1.60;;;;;;;5.36;34.94;99977.59;4923323;28;98483;-67
2021/01/26 02:26:50;;;;;;;1.67;1.50;;;;;;;5.33;35.37;99982.06;4945419;28;98550;-67
2021/01/26 02:29:45;;;;;;;1.58;1.48;;;;;;;5.31;35.57;99978.66;4945889;28;98459;-67
2021/01/26 02:32:23;;;;;;;;;;;;;;;5.27;35.63;99980.47;4927761;28;96787;-67
2021/01/26 02:35:14;;;;;;;2.17;1.98;;;;;;;5.23;35.37;99982.34;4924523;28;98582;-67
2021/01/26 02:38:13;;;;;;;1.73;1.60;;;;;;;5.21;35.39;99983.28;4925487;28;98263;-67
2021/01/26 02:40:48;;;;;;;1.70;1.60;;;;;;;5.29;35.37;99981.28;4936832;28;99733;-67
2021/01/26 02:43:20;;;;;;;3.20;1.80;;;;;;;5.25;35.46;99983.13;4944588;28;97612;-67
2021/01/26 02:46:10;;;;;;;1.98;1.88;;;;;;;5.22;35.32;99990.16;4925688;28;98391;-67
2021/01/26 02:48:51;;;;;;;1.70;1.60;;;;;;;5.11;35.37;99981.88;4925256;28;98727;-67
2021/01/26 02:51:53;;;;;;;1.48;1.38;;;;;;;5.18;35.22;99991.13;4926869;28;98797;-66
2021/01/26 02:54:30;;;;;;;1.67;1.55;;;;;;;5.20;35.07;99992.75;4929373;28;96844;-66
2021/01/26 02:57:06;;;;;;;1.55;1.45;;;;;;;5.23;35.23;99997.84;4923401;28;98793;-66
2021/01/26 02:59:43;;;;;;;1.63;1.52;;;;;;;5.11;35.01;99993.06;4942272;28;99259;-66
2021/01/26 03:02:39;;;;;;;1.50;1.40;;;;;;;5.15;35.30;100004.97;4935881;28;98609;-66
2021/01/26 03:05:36;;;;;;;1.48;1.38;;;;;;;5.12;34.93;100005.09;4923384;28;99414;-66
2021/01/26 03:08:08;;;;;;;4.25;2.40;;;;;;;5.20;35.14;100013.44;4874125;28;101329;-67
2021/01/26 03:10:42;;;;;;;1.50;1.40;;;;;;;5.19;34.80;100016.09;4910813;28;98530;-66
2021/01/26 03:13:10;;;;;;;1.77;1.67;;;;;;;5.19;34.70;100021.25;4909221;28;97458;-66
2021/01/26 03:15:42;;;;;;;1.90;1.80;;;;;;;5.20;35.40;100025.50;4911699;28;96784;-66
2021/01/26 03:18:11;;;;;;;2.20;1.80;;;;;;;5.19;35.11;100032.44;4909783;28;98713;-66
2021/01/26 03:20:51;;;;;;;1.50;1.50;;;;;;;5.24;34.75;100029.69;4923480;28;98730;-66
2021/01/26 03:23:21;;;;;;;7.50;1.58;;;;;;;5.19;35.08;100027.25;4943867;28;99019;-66
2021/01/26 03:25:49;;;;;;;3.97;1.67;;;;;;;5.23;35.29;100038.34;4943175;28;98884;-66
2021/01/26 03:28:16;;;;;;;2.72;1.40;;;;;;;5.25;34.85;100039.13;4922119;28;98672;-66
2021/01/26 03:30:44;;;;;;;1.50;1.40;;;;;;;5.19;34.69;100047.94;4911680;28;98523;-67
2021/01/26 03:33:22;;;;;;;1.80;1.30;;;;;;;5.19;34.96;100044.50;4926107;28;97453;-67
2021/01/26 03:35:48;;;;;;;2.65;1.90;;;;;;;5.13;35.19;100045.53;4943995;28;98130;-66
2021/01/26 03:38:24;;;;;;;1.73;1.60;;;;;;;5.13;35.59;100042.97;4942060;28;98541;-66
2021/01/26 03:40:51;;;;;;;1.38;1.27;;;;;;;5.13;36.09;100055.03;4939337;28;98652;-66
2021/01/26 03:43:18;;;;;;;1.30;1.20;;;;;;;5.10;36.11;100049.94;4925390;28;96854;-66
2021/01/26 03:45:45;;;;;;;1.48;1.38;;;;;;;5.05;36.17;100054.41;4944790;28;97493;-66
2021/01/26 03:48:25;;;;;;;1.42;1.33;;;;;;;5.02;36.32;100060.53;4926086;28;98691;-66
2021/01/26 03:50:56;;;;;;;1.40;1.30;;;;;;;4.99;36.56;100052.84;4922809;28;98632;-66
2021/01/26 03:53:46;;;;;;;1.23;1.23;;;;;;;4.93;36.95;100058.22;4927930;28;97477;-67
2021/01/26 03:56:30;;;;;;;1.73;1.30;;;;;;;4.97;36.58;100062.41;4928146;28;97888;-65
2021/01/26 03:59:19;;;;;;;1.40;1.30;;;;;;;4.97;36.75;100060.66;4942497;28;98527;-66
2021/01/26 04:02:18;;;;;;;1.27;1.27;;;;;;;4.92;37.10;100065.13;4925825;28;99748;-66
2021/01/26 04:04:47;;;;;;;5.82;1.90;;;;;;;4.95;36.75;100072.78;4926983;28;96712;-65
2021/01/26 04:07:40;;;;;;;3.38;1.23;;;;;;;4.96;36.54;100071.06;4929032;28;97142;-66
2021/01/26 04:10:17;;;;;;;1.35;1.25;;;;;;;4.94;36.08;100083.16;4921377;28;98738;-66
2021/01/26 04:12:43;;;;;;;1.30;1.30;;;;;;;4.95;36.16;100087.41;4948575;28;98474;-66
2021/01/26 04:15:11;;;;;;;1.33;1.25;;;;;;;4.95;36.02;100090.00;4946329;28;96767;-66
2021/01/26 04:17:41;;;;;;;1.20;1.20;;;;;;;4.99;35.96;100095.03;4940866;28;98315;-65
2021/01/26 04:20:22;;;;;;;2.25;1.23;;;;;;;4.95;35.93;100090.00;4924071;28;100749;-66
2021/01/26 04:22:53;;;;;;;1.40;1.30;;;;;;;4.99;35.42;100094.19;4911916;28;98541;-66
2021/01/26 04:25:29;;;;;;;3.03;1.55;;;;;;;5.02;35.52;100091.53;4927102;28;98533;-65
2021/01/26 04:27:56;;;;;;;1.50;1.33;;;;;;;4.94;35.44;100094.31;4938992;28;96742;-66
2021/01/26 04:30:23;;;;;;;1.30;1.23;;;;;;;5.06;35.60;100103.47;4943160;28;98997;-66
2021/01/26 04:32:57;;;;;;;1.20;1.20;;;;;;;5.02;35.16;100101.03;4940583;28;100021;-65
2021/01/26 04:35:24;;;;;;;2.10;1.50;;;;;;;5.01;35.34;100113.09;4939879;28;100428;-66
2021/01/26 04:37:50;;;;;;;1.25;1.23;;;;;;;5.05;35.27;100109.50;4944684;28;96735;-65
2021/01/26 04:40:17;;;;;;;1.83;1.73;;;;;;;5.06;35.33;100113.81;4949915;28;98894;-66
2021/01/26 04:42:55;;;;;;;1.83;1.73;;;;;;;5.07;35.35;100118.06;4919277;28;98822;-66
2021/01/26 04:45:26;;;;;;;1.35;1.25;;;;;;;5.02;35.55;100121.69;4934381;28;96674;-65
2021/01/26 04:48:14;;;;;;;1.70;1.60;;;;;;;5.05;35.41;100121.56;4937268;28;96604;-66
2021/01/26 04:50:57;;;;;;;1.55;1.42;;;;;;;5.07;35.71;100128.41;4950322;28;98511;-65
2021/01/26 04:53:32;;;;;;;2.08;1.92;;;;;;;5.02;36.36;100132.03;4950307;28;98758;-65
2021/01/26 04:56:20;;;;;;;1.85;1.75;;;;;;;5.00;36.42;100137.22;4950919;28;96619;-66
2021/01/26 04:58:55;;;;;;;1.50;1.40;;;;;;;4.94;35.83;100142.56;4892355;28;98327;-66
2021/01/26 05:01:21;;;;;;;;;;;;;;;4.91;36.02;100153.00;4950892;28;98507;-65
2021/01/26 05:04:08;;;;;;;1.50;1.40;;;;;;;4.98;36.13;100157.09;4951552;28;99120;-66
2021/01/26 05:06:46;;;;;;;1.20;1.20;;;;;;;4.90;35.62;100156.44;4934020;28;96715;-66
2021/01/26 05:09:21;;;;;;;1.80;1.70;;;;;;;4.94;35.81;100161.47;4934161;28;96534;-66
2021/01/26 05:11:47;;;;;;;6.63;1.80;;;;;;;4.96;35.92;100164.03;4933081;28;98667;-66
2021/01/26 05:14:23;;;;;;;1.58;1.45;;;;;;;4.97;35.70;100163.16;4951659;28;98565;-66
2021/01/26 05:17:09;;;;;;;1.50;1.40;;;;;;;4.90;35.31;100172.81;4916290;28;96696;-66
2021/01/26 05:19:48;;;;;;;1.40;1.30;;;;;;;4.97;35.83;100165.72;4951685;28;96720;-66
2021/01/26 05:22:26;;;;;;;1.60;1.50;;;;;;;4.98;35.68;100183.75;4950022;28;98474;-66
2021/01/26 05:25:00;;;;;;;1.50;1.40;;;;;;;4.94;35.64;100182.16;4946886;28;98412;-66
2021/01/26 05:27:26;;;;;;;1.38;1.33;;;;;;;4.97;35.65;100181.22;4892252;28;96764;-67
2021/01/26 05:29:52;;;;;;;1.27;1.17;;;;;;;4.96;35.31;100189.88;4891749;28;96784;-68
2021/01/26 05:32:19;;;;;;;6.07;2.60;;;;;;;4.96;35.44;100190.72;4904941;28;98626;-66
2021/01/26 05:34:45;;;;;;;8.05;1.83;;;;;;;4.99;35.55;100200.94;4892005;28;98635;-66
2021/01/26 05:37:13;;;;;;;3.38;2.47;;;;;;;4.97;35.59;100204.47;4905872;28;97818;-66
2021/01/26 05:40:09;;;;;;;6.07;1.85;;;;;;;4.95;35.58;100214.00;4905286;28;97399;-66
2021/01/26 05:42:35;;;;;;;2.97;1.88;;;;;;;4.94;35.35;100215.72;4899774;28;98582;-66
2021/01/26 05:45:09;;;;;;;3.15;2.28;;;;;;;5.02;35.37;100222.44;4911486;28;98457;-66
2021/01/26 05:47:37;;;;;;;2.45;1.50;;;;;;;4.96;35.42;100213.97;4893455;28;96836;-65
2021/01/26 05:50:04;;;;;;;7.10;1.63;;;;;;;5.00;35.80;100227.63;4907634;28;97280;-66
2021/01/26 05:52:35;;;;;;;4.95;1.60;;;;;;;4.94;35.94;100230.38;4913829;28;98583;-66
2021/01/26 05:55:03;;;;;;;2.85;1.58;;;;;;;5.01;36.35;100239.69;4909913;28;98633;-66
2021/01/26 05:57:32;;;;;;;1.63;1.52;;;;;;;5.02;35.64;100243.97;4907162;28;98173;-66
2021/01/26 06:00:24;;;;;;;2.90;1.90;;;;;;;4.94;35.56;100243.31;4906544;28;96841;-65
2021/01/26 06:03:17;;;;;;;2.75;1.70;;;;;;;4.96;35.63;100247.56;4905801;28;98636;-65
2021/01/26 06:06:02;;;;;;;4.75;2.28;;;;;;;4.99;35.86;100254.38;4906303;28;98790;-65
2021/01/26 06:08:29;;;;;;;2.33;2.10;;;;;;;5.01;35.98;100255.19;4909948;28;96680;-65
2021/01/26 06:10:55;;;;;;;2.05;1.73;;;;;;;4.98;36.71;100263.84;4913961;28;96650;-66
2021/01/26 06:13:29;;;;;;;3.15;2.00;;;;;;;4.96;36.69;100269.97;4914610;28;97446;-66
2021/01/26 06:16:25;;;;;;;5.25;1.92;;;;;;;4.98;36.91;100270.75;4913559;28;98601;-65
2021/01/26 06:18:56;;;;;;;8.18;2.53;;;;;;;4.92;36.21;100276.94;4906065;28;96889;-63
2021/01/26 06:21:22;;;;;;;10.52;3.25;;;;;;;4.91;36.59;100276.97;4911918;28;97339;-63
2021/01/26 06:23:48;;;;;;;3.50;1.90;;;;;;;4.92;36.29;100281.25;4909749;28;98591;-62
2021/01/26 06:26:15;;;;;;;3.63;2.03;;;;;;;4.88;36.50;100280.47;4919040;28;99819;-65
2021/01/26 06:29:38;;;;;;;5.80;2.10;;;;;;;4.92;36.64;100286.41;4946622;28;96700;-64
2021/01/26 06:32:13;;;;;;;4.40;1.75;;;;;;;4.92;35.90;100287.25;4868818;28;97865;-62
2021/01/26 06:34:47;;;;;;;4.78;1.95;;;;;;;4.90;35.93;100285.59;4868486;28;98729;-65
2021/01/26 06:37:13;;;;;;;4.78;2.33;;;;;;;4.79;36.41;100295.34;4907322;28;98528;-64
2021/01/26 06:40:01;;;;;;;3.85;1.92;;;;;;;4.82;36.30;100308.22;4945720;28;97944;-64
2021/01/26 06:42:31;;;;;;;9.77;1.90;;;;;;;4.89;36.33;100307.16;4945642;28;96840;-65
2021/01/26 06:45:16;;;;;;;4.78;1.70;;;;;;;4.91;36.04;100314.00;4934885;28;98430;-64
2021/01/26 06:47:54;;;;;;;;;;;;;;;4.93;35.27;100313.94;4949024;28;98241;-67
2021/01/26 06:50:46;;;;;;;10.52;2.15;;;;;;;4.94;35.56;100320.78;4942827;28;96602;-67
2021/01/26 06:53:15;;;;;;;7.07;2.80;;;;;;;4.90;36.32;100327.81;4947901;28;97073;-68
2021/01/26 06:55:52;;;;;;;15.05;2.30;;;;;;;4.92;35.62;100338.09;4949140;28;98574;-67
2021/01/26 06:58:43;;;;;;;6.00;1.95;;;;;;;4.90;36.10;100335.56;4950723;28;98937;-65
2021/01/26 07:01:39;;;;;;;4.32;2.20;;;;;;;4.87;35.57;100332.19;4946027;28;96768;-68
2021/01/26 07:04:37;;;;;;;1.92;1.83;;;;;;;4.92;35.86;100338.09;4920221;28;97016;-67
2021/01/26 07:07:29;;;;;;;6.20;1.95;;;;;;;4.95;35.91;100348.31;4934829;28;98534;-68
2021/01/26 07:10:40;;;;;;;1.73;1.63;;;;;;;4.98;35.81;100343.94;4951719;28;98793;-67
2021/01/26 07:13:46;;;;;;;2.63;1.60;;;;;;;5.01;35.25;100345.63;4913111;28;96986;-66
2021/01/26 07:16:16;;;;;;;4.22;2.00;;;;;;;5.00;35.19;100356.81;4949702;28;96698;-68
2021/01/26 07:19:04;;;;;;;4.35;1.80;;;;;;;5.04;35.27;100360.16;4952430;28;98499;-68
2021/01/26 07:21:36;;;;;;;5.55;1.50;;;;;;;5.10;34.99;100362.59;4944685;28;98523;-68
2021/01/26 07:24:14;;;;;;;4.85;2.25;;;;;;;5.17;34.79;100365.00;4951355;28;96582;-69
2021/01/26 07:26:59;;;;;;;2.33;1.50;;;;;;;5.55;34.60;100355.38;4951793;28;96732;-68
2021/01/26 07:29:31;;;;;;;2.42;2.20;;;;;;;6.20;32.74;100355.22;4951136;28;98711;-68
2021/01/26 07:32:05;;;;;;;2.17;1.70;;;;;;;6.68;31.63;100357.19;4948409;28;99796;-70
2021/01/26 07:34:34;;;;;;;;;;;;;;;7.11;31.34;100358.34;4929440;28;96667;-70
2021/01/26 07:37:08;;;;;;;8.85;2.33;;;;;;;7.57;30.49;100364.53;4934287;28;97333;-70
2021/01/26 07:39:38;;;;;;;13.95;3.42;;;;;;;7.89;29.73;100365.97;4943614;28;98594;-71
2021/01/26 07:42:10;;;;;;;8.98;3.42;;;;;;;8.19;29.49;100368.31;4914814;28;98586;-71
2021/01/26 07:44:46;;;;;;;2.90;1.90;;;;;;;8.51;29.26;100367.09;4942723;28;97323;-70
2021/01/26 07:47:30;;;;;;;6.15;1.70;;;;;;;8.86;28.72;100369.13;4945992;28;96709;-70
2021/01/26 07:50:19;;;;;;;10.55;2.58;;;;;;;9.19;27.92;100374.66;4927351;28;98381;-70
2021/01/26 07:52:47;;;;;;;6.80;1.55;;;;;;;9.48;27.80;100375.19;4937302;28;98456;-70
2021/01/26 07:55:33;;;;;;;14.20;2.65;;;;;;;9.79;27.11;100373.81;4918420;28;96705;-70
2021/01/26 07:58:05;;;;;;;7.22;1.80;;;;;;;10.09;27.14;100376.81;4951263;28;97582;-70
2021/01/26 08:00:36;;;;;;;1.65;1.23;;;;;;;10.40;26.82;100378.88;4932722;28;98833;-69
2021/01/26 08:03:02;;;;;;;4.18;1.30;;;;;;;10.70;26.44;100389.59;4928699;28;98596;-70
2021/01/26 08:05:48;;;;;;;1.90;1.40;;;;;;;10.93;25.87;100380.66;4941235;28;96670;-70
2021/01/26 08:08:20;;;;;;;6.05;1.90;;;;;;;11.21;25.39;100394.03;4946764;28;96716;-70
2021/01/26 08:10:48;;;;;;;7.55;1.92;;;;;;;11.47;24.66;100400.53;4934648;28;97598;-70
2021/01/26 08:13:25;;;;;;;3.72;1.58;;;;;;;11.65;24.77;100401.34;4915151;28;98572;-70
2021/01/26 08:15:51;;;;;;;7.32;1.60;;;;;;;11.91;24.32;100401.78;4943169;28;97017;-71
2021/01/26 08:18:24;;;;;;;7.03;1.67;;;;;;;12.05;23.79;100405.34;4909474;28;97821;-70
2021/01/26 08:20:51;;;;;;;4.10;1.57;;;;;;;12.25;23.33;100416.47;4925686;28;98432;-70
2021/01/26 08:23:25;;;;;;;1.58;1.48;;;;;;;12.45;23.25;100410.16;4939717;28;98680;-71
2021/01/26 08:25:54;;;;;;;5.43;1.30;;;;;;;12.72;23.05;100413.03;4909173;28;98153;-71
2021/01/26 08:28:45;;;;;;;9.73;1.27;;;;;;;12.92;22.09;100420.59;4925667;28;97402;-70
2021/01/26 08:31:31;;;;;;;2.08;1.75;;;;;;;13.08;21.95;100412.72;4935009;28;98561;-70
2021/01/26 08:34:21;;;;;;;2.53;1.25;;;;;;;13.25;21.92;100419.63;4926342;28;98421;-70
2021/01/26 08:37:07;;;;;;;3.08;1.50;;;;;;;13.34;21.89;100424.31;4931710;28;98473;-71
2021/01/26 08:39:42;;;;;;;2.58;1.50;;;;;;;13.45;21.43;100426.31;4936112;28;100471;-71
2021/01/26 08:42:08;;;;;;;1.63;1.10;;;;;;;13.46;21.35;100431.44;4940249;28;98541;-71
2021/01/26 08:44:35;;;;;;;0.90;0.80;;;;;;;13.50;21.45;100440.81;4923514;28;99765;-71
2021/01/26 08:47:37;;;;;;;5.32;1.10;;;;;;;13.39;20.92;100434.53;4939984;28;98042;-70
2021/01/26 08:50:19;;;;;;;4.15;2.22;;;;;;;13.17;20.82;100443.59;4871284;28;96990;-70
2021/01/26 08:52:46;;;;;;;3.90;1.10;;;;;;;13.06;21.57;100452.06;4918965;28;98555;-71
2021/01/26 08:55:35;;;;;;;3.22;1.00;;;;;;;12.83;21.20;100449.88;4938800;28;98667;-71
2021/01/26 08:58:01;;;;;;;1.50;0.90;;;;;;;12.70;21.75;100456.75;4926858;28;97019;-71
2021/01/26 09:00:35;;;;;;;3.10;1.10;;;;;;;12.48;21.36;100459.69;4941333;28;100279;-69
2021/01/26 09:03:24;;;;;;;7.43;1.35;;;;;;;12.01;22.09;100458.69;4926907;28;98798;-71
2021/01/26 09:06:00;;;;;;;1.25;1.10;;;;;;;11.68;22.54;100465.63;4940939;28;98427;-70
2021/01/26 09:08:41;;;;;;;2.78;1.50;;;;;;;11.17;22.96;100467.31;4928341;28;97235;-70
2021/01/26 09:11:16;;;;;;;6.68;1.63;;;;;;;10.77;23.52;100468.38;4941587;28;97844;-70
2021/01/26 09:13:42;;;;;;;3.95;2.58;;;;;;;10.55;23.82;100476.38;4942033;28;98712;-70
2021/01/26 09:16:28;;;;;;;2.90;1.73;;;;;;;10.34;24.55;100480.78;4908724;28;98577;-70
2021/01/26 09:19:01;;;;;;;2.35;1.60;;;;;;;10.21;24.50;100483.06;4939663;28;97406;-70
2021/01/26 09:21:31;;;;;;;3.05;1.45;;;;;;;10.05;24.54;100487.25;4926976;28;98612;-70
2021/01/26 09:23:58;;;;;;;5.53;1.42;;;;;;;9.97;24.36;100483.25;4943148;28;98601;-70
2021/01/26 09:26:26;;;;;;;2.90;0.93;;;;;;;9.81;24.92;100490.03;4927146;28;97607;-70
2021/01/26 09:28:53;;;;;;;2.30;1.38;;;;;;;9.73;24.81;100488.66;4925002;28;97637;-70
2021/01/26 09:31:25;;;;;;;8.68;1.52;;;;;;;9.71;25.34;100491.31;4944037;28;99681;-70
2021/01/26 09:34:06;;;;;;;3.20;1.25;;;;;;;9.71;24.72;100499.13;4927158;28;99742;-71
2021/01/26 09:36:36;;;;;;;1.38;1.15;;;;;;;9.64;24.72;100500.28;4942975;28;98667;-70
2021/01/26 09:39:08;;;;;;;3.28;1.10;;;;;;;9.64;24.34;100506.38;4937494;28;98906;-70
2021/01/26 09:41:35;;;;;;;1.65;1.33;;;;;;;9.66;25.06;100508.91;4940594;28;97882;-70
2021/01/26 09:44:12;;;;;;;10.32;1.63;;;;;;;9.67;24.96;100511.41;4941177;28;98554;-70
2021/01/26 09:46:42;;;;;;;6.38;2.13;;;;;;;9.57;24.66;100509.28;4943986;28;98741;-69
2021/01/26 09:49:19;;;;;;;2.42;2.05;;;;;;;9.60;25.25;100506.56;4938957;28;97627;-70
2021/01/26 09:51:55;;;;;;;3.88;1.90;;;;;;;9.63;25.33;100501.19;4939911;28;98107;-70
2021/01/26 09:54:27;;;;;;;2.17;1.80;;;;;;;9.59;25.20;100507.47;4917650;28;98509;-70
2021/01/26 09:56:54;;;;;;;8.73;3.00;;;;;;;9.48;24.85;100513.13;4943918;28;98459;-70
2021/01/26 09:59:20;;;;;;;9.35;3.10;;;;;;;9.40;25.23;100512.56;4927655;28;97637;-69
2021/01/26 10:01:47;;;;;;;1.83;1.20;;;;;;;9.50;25.21;100518.25;4940204;28;97235;-70
2021/01/26 10:04:15;;;;;;;1.52;1.10;;;;;;;9.42;24.39;100511.59;4920644;28;98563;-70
2021/01/26 10:06:41;;;;;;;9.90;1.30;;;;;;;9.42;24.36;100516.78;4926833;28;98496;-70
2021/01/26 10:09:28;;;;;;;1.60;1.23;;;;;;;9.40;24.86;100515.19;4908809;28;97255;-70
2021/01/26 10:12:15;;;;;;;1.02;1.00;;;;;;;9.42;24.85;100518.53;4939355;28;97484;-70
2021/01/26 10:14:41;;;;;;;1.48;0.90;;;;;;;9.30;24.96;100517.28;4938172;28;99012;-70
2021/01/26 10:17:11;;;;;;;1.10;1.00;;;;;;;9.39;24.50;100516.09;4922998;28;98535;-73
2021/01/26 10:19:37;;;;;;;3.42;0.98;;;;;;;9.48;24.58;100520.91;4943530;28;98362;-70
2021/01/26 10:22:13;;;;;;;2.50;1.30;;;;;;;9.45;24.13;100527.09;4941803;28;97162;-70
2021/01/26 10:24:39;;;;;;;0.95;0.90;;;;;;;9.32;24.65;100523.31;4940071;28;98532;-70
2021/01/26 10:27:14;;;;;;;3.42;1.30;;;;;;;9.31;24.95;100523.34;4941823;28;99179;-70
2021/01/26 10:29:41;;;;;;;1.20;1.10;;;;;;;9.43;25.38;100523.72;4923924;28;100721;-70
2021/01/26 10:32:09;;;;;;;3.30;1.00;;;;;;;9.35;25.32;100515.34;4939388;28;97676;-70
2021/01/26 10:34:40;;;;;;;1.85;1.15;;;;;;;9.38;24.66;100517.84;4938145;28;100015;-70
2021/01/26 10:37:29;;;;;;;3.20;1.77;;;;;;;9.39;24.79;100511.72;4941963;28;98949;-69
2021/01/26 10:40:27;;;;;;;6.00;1.90;;;;;;;9.45;25.30;100510.63;4926785;28;98341;-70
2021/01/26 10:42:59;;;;;;;1.60;1.50;;;;;;;9.39;25.60;100509.13;4943175;28;97269;-70
2021/01/26 10:45:34;;;;;;;1.42;1.33;;;;;;;9.44;24.49;100509.78;4922920;28;97871;-70
2021/01/26 10:48:12;;;;;;;2.53;1.20;;;;;;;9.38;25.25;100501.38;4941834;28;97869;-70
2021/01/26 10:50:39;;;;;;;3.63;1.52;;;;;;;9.47;25.13;100506.19;4909514;28;98225;-70
2021/01/26 10:53:05;;;;;;;2.83;1.60;;;;;;;9.40;25.23;100507.38;4924052;28;97576;-69
2021/01/26 10:55:33;;;;;;;2.55;1.42;;;;;;;9.39;25.17;100506.53;4939305;28;98682;-68
2021/01/26 10:57:59;;;;;;;1.40;1.30;;;;;;;9.44;24.67;100499.38;4943377;28;99286;-69
2021/01/26 11:00:29;;;;;;;1.38;1.20;;;;;;;9.34;25.08;100497.22;4921873;28;97511;-70
2021/01/26 11:02:56;;;;;;;3.30;1.33;;;;;;;9.39;25.13;100498.72;4939483;28;98047;-70
2021/01/26 11:05:23;;;;;;;3.28;1.30;;;;;;;9.43;25.22;100494.25;4943605;28;98484;-70
2021/01/26 11:07:49;;;;;;;7.10;1.40;;;;;;;9.46;25.14;100481.09;4944666;28;98397;-71
2021/01/26 11:10:16;;;;;;;1.92;1.40;;;;;;;9.53;25.83;100486.88;4942623;28;99727;-72
2021/01/26 11:12:43;;;;;;;1.10;1.00;;;;;;;9.53;25.38;100492.09;4925032;28;97420;-73
2021/01/26 11:15:15;;;;;;;1.75;1.30;;;;;;;9.43;24.56;100484.69;4940992;28;98444;-73
2021/01/26 11:17:41;;;;;;;2.00;1.00;;;;;;;9.43;24.57;100489.03;4941402;28;98603;-72
2021/01/26 11:20:08;;;;;;;3.97;1.08;;;;;;;9.39;24.37;100487.47;4941900;28;101056;-73
2021/01/26 11:22:36;;;;;;;1.05;0.90;;;;;;;9.37;24.94;100492.72;4941558;28;98239;-73
2021/01/26 11:25:04;;;;;;;2.78;0.90;;;;;;;9.29;24.91;100492.19;4942462;28;98643;-73
2021/01/26 11:27:30;;;;;;;2.17;1.10;;;;;;;9.32;25.03;100491.22;4936772;28;98767;-73
2021/01/26 11:29:57;;;;;;;10.10;1.40;;;;;;;9.35;25.33;100498.91;4940225;28;98683;-74
2021/01/26 11:32:23;;;;;;;1.40;1.13;;;;;;;9.35;25.97;100481.53;4944569;28;96748;-74
2021/01/26 11:34:50;;;;;;;1.40;1.30;;;;;;;9.42;25.77;100476.91;4940147;28;99840;-74
2021/01/26 11:37:17;;;;;;;7.07;1.20;;;;;;;9.44;25.24;100478.56;4941498;28;98432;-74
2021/01/26 11:39:43;;;;;;;2.85;1.27;;;;;;;9.45;25.34;100482.84;4944060;28;97820;-74
2021/01/26 11:42:10;;;;;;;5.07;1.00;;;;;;;9.49;25.74;100480.13;4942948;28;97403;-74
2021/01/26 11:44:36;;;;;;;1.10;1.00;;;;;;;9.43;25.42;100482.06;4926946;28;100449;-74
2021/01/26 11:47:03;;;;;;;1.70;1.15;;;;;;;9.47;25.20;100485.38;4942230;28;98438;-74
2021/01/26 11:49:30;;;;;;;1.77;1.17;;;;;;;9.33;25.17;100487.72;4936649;28;96909;-74
2021/01/26 11:51:56;;;;;;;4.18;1.23;;;;;;;9.35;25.73;100493.69;4940665;28;98215;-74
2021/01/26 11:54:23;;;;;;;7.45;1.52;;;;;;;9.47;25.65;100487.97;4942748;28;98549;-74
2021/01/26 11:56:49;;;;;;;5.65;1.15;;;;;;;9.37;25.42;100495.31;4937444;28;98660;-74
2021/01/26 11:59:15;;;;;;;2.53;1.17;;;;;;;9.37;25.59;100497.06;4939743;28;97083;-74
2021/01/26 12:01:42;;;;;;;1.30;1.02;;;;;;;9.41;25.65;100502.09;4946708;28;97338;-74
2021/01/26 12:04:13;;;;;;;2.42;1.00;;;;;;;9.44;26.17;100495.94;4925450;28;100422;-73